Time;durP1;ratioP1;P1;durP2;ratioP2;P2;SDS_P1;SDS_P2;PMS_P1;PMS_P2;Temp;Humidity;BMP_temperature;BMP_pressure;BME280_temperature;BME280_humidity;BME280_pressure;Samples;Min_cycle;Max_cycle;Signal;HPM_P1;HPM_P2
2022/08/23 00:01:50;;;;;;;8.75;5.28;;;20.60;99.90;;;;;;5078425;28;20035;-60
2022/08/23 00:04:22;;;;;;;9.88;4.55;;;20.60;99.90;;;;;;5078709;28;20024;-60
2022/08/23 00:06:49;;;;;;;10.55;4.78;;;20.50;99.90;;;;;;5078238;28;20304;-60
2022/08/23 00:09:17;;;;;;;9.93;5.65;;;20.50;99.90;;;;;;5078045;28;20025;-60
2022/08/23 00:12:14;;;;;;;7.50;5.20;;;20.50;99.90;;;;;;5078603;28;20349;-61
2022/08/23 00:14:46;;;;;;;9.23;5.18;;;20.50;99.90;;;;;;5077010;28;20102;-60
2022/08/23 00:17:12;;;;;;;8.27;4.90;;;20.50;99.90;;;;;;5077893;28;20032;-60
2022/08/23 00:19:39;;;;;;;11.88;5.40;;;20.50;99.90;;;;;;5078087;28;20304;-60
2022/08/23 00:22:06;;;;;;;11.07;5.40;;;20.60;99.90;;;;;;5077934;28;20025;-60
2022/08/23 00:24:32;;;;;;;8.73;5.10;;;20.60;99.90;;;;;;5077027;28;20032;-60
2022/08/23 00:27:06;;;;;;;9.45;5.57;;;20.50;99.90;;;;;;5077727;28;20458;-60
2022/08/23 00:29:44;;;;;;;11.82;5.03;;;20.60;99.90;;;;;;5077466;28;20131;-60
2022/08/23 00:32:12;;;;;;;9.95;5.65;;;20.60;99.90;;;;;;5076872;28;20033;-60
2022/08/23 00:34:39;;;;;;;13.05;5.53;;;20.50;99.90;;;;;;5078067;28;20280;-60
2022/08/23 00:37:06;;;;;;;10.43;5.38;;;20.60;99.90;;;;;;5076734;28;20044;-60
2022/08/23 00:39:32;;;;;;;13.40;5.80;;;20.70;99.90;;;;;;5077608;28;20028;-61
2022/08/23 00:47:38;;;;;;;10.02;5.00;;;20.80;99.90;;;;;;5076719;28;20032;-59
2022/08/23 00:47:39;;;;;;;11.43;5.97;;;20.60;99.90;;;;;;5077825;28;20304;-59
2022/08/23 00:50:19;;;;;;;10.82;5.78;;;20.70;99.90;;;;;;5077302;28;20400;-61
2022/08/23 00:53:04;;;;;;;13.90;6.35;;;20.70;99.90;;;;;;5077897;28;20036;-60
2022/08/23 00:55:31;;;;;;;11.32;6.55;;;20.80;99.90;;;;;;5076433;28;20036;-60
2022/08/23 00:57:57;;;;;;;11.88;6.13;;;20.80;99.90;;;;;;5076482;28;20115;-61
2022/08/23 01:00:24;;;;;;;10.15;5.97;;;20.70;99.90;;;;;;5077113;28;20297;-60
2022/08/23 01:02:51;;;;;;;8.88;5.80;;;20.70;99.90;;;;;;5077149;28;20035;-61
2022/08/23 01:05:18;;;;;;;8.68;5.22;;;20.60;99.90;;;;;;5076485;28;20029;-60
2022/08/23 01:08:10;;;;;;;6.47;4.68;;;20.50;99.90;;;;;;5077421;28;20393;-60
2022/08/23 01:10:43;;;;;;;12.33;5.83;;;20.50;99.90;;;;;;5075742;28;20343;-61
2022/08/23 01:13:14;;;;;;;11.65;5.18;;;20.60;99.90;;;;;;5077242;28;20277;-60
2022/08/23 01:15:53;;;;;;;11.75;5.40;;;20.60;99.90;;;;;;5076989;28;20036;-60
2022/08/23 01:18:24;;;;;;;10.43;5.65;;;20.50;99.90;;;;;;5076882;28;20086;-59
2022/08/23 01:21:18;;;;;;;12.50;6.53;;;20.60;99.90;;;;;;5077048;28;20043;-59
2022/08/23 01:23:59;;;;;;;13.90;6.75;;;20.70;99.90;;;;;;5076273;28;20052;-61
2022/08/23 01:26:26;;;;;;;11.73;6.57;;;20.50;99.90;;;;;;5076120;28;20032;-59
2022/08/23 01:28:54;;;;;;;12.48;6.47;;;20.50;99.90;;;;;;5075920;28;20059;-59
2022/08/23 01:31:22;;;;;;;11.85;7.35;;;20.50;99.90;;;;;;5076134;28;20059;-60
2022/08/23 01:33:57;;;;;;;12.20;6.38;;;20.40;99.90;;;;;;5077145;28;20350;-60
2022/08/23 01:36:24;;;;;;;9.18;6.70;;;20.40;99.90;;;;;;5076806;28;20037;-60
2022/08/23 01:38:51;;;;;;;13.93;7.93;;;20.40;99.90;;;;;;5076054;28;20041;-60
2022/08/23 01:41:18;;;;;;;9.88;7.50;;;20.30;99.90;;;;;;5042831;28;20124;-59
2022/08/23 01:43:45;;;;;;;13.93;8.02;;;20.20;99.90;;;;;;5075879;28;20518;-59
2022/08/23 01:46:19;;;;;;;13.20;7.60;;;20.30;99.90;;;;;;5075877;28;20299;-59
2022/08/23 01:48:46;;;;;;;9.85;7.60;;;20.30;99.90;;;;;;5076684;28;20039;-61
2022/08/23 01:51:15;;;;;;;12.70;8.02;;;20.30;99.90;;;;;;5075957;28;20035;-58
2022/08/23 01:53:42;;;;;;;15.90;8.07;;;20.30;99.90;;;;;;5075847;28;20424;-60
2022/08/23 01:56:08;;;;;;;12.50;8.57;;;20.30;99.90;;;;;;5076194;28;20037;-60
2022/08/23 01:58:36;;;;;;;15.05;8.25;;;20.30;99.90;;;;;;5075755;28;20028;-60
2022/08/23 02:01:03;;;;;;;13.07;7.65;;;20.30;99.90;;;;;;5076678;28;20039;-60
2022/08/23 02:03:31;;;;;;;13.82;8.65;;;20.30;99.90;;;;;;5075687;28;20025;-59
2022/08/23 02:05:57;;;;;;;15.77;7.93;;;20.40;99.90;;;;;;5059192;28;20044;-60
2022/08/23 02:11:13;;;;;;;13.73;8.25;;;20.40;99.90;;;;;;5075714;28;20412;-59
2022/08/23 02:13:41;;;;;;;13.38;8.75;;;20.40;99.90;;;;;;5076937;28;20289;-59
2022/08/23 02:16:09;;;;;;;13.85;9.15;;;20.50;99.90;;;;;;5075513;28;20365;-59
2022/08/23 02:18:35;;;;;;;16.95;10.27;;;20.40;99.90;;;;;;5075818;28;20424;-59
2022/08/23 02:21:02;;;;;;;20.70;10.32;;;20.10;99.90;;;;;;5077855;28;20040;-59
2022/08/23 02:23:28;;;;;;;16.63;9.82;;;19.90;99.90;;;;;;5062702;28;20058;-59
2022/08/23 02:25:55;;;;;;;13.63;9.20;;;19.80;99.90;;;;;;5080061;28;20352;-59
2022/08/23 02:28:22;;;;;;;12.80;9.60;;;19.60;99.90;;;;;;5079174;28;20036;-60
2022/08/23 02:30:49;;;;;;;13.90;9.13;;;19.50;99.90;;;;;;5079138;28;20036;-61
2022/08/23 02:33:16;;;;;;;15.07;10.55;;;19.60;99.90;;;;;;5079972;28;20036;-60
2022/08/23 02:35:42;;;;;;;19.58;11.45;;;19.70;99.90;;;;;;5079396;28;20024;-60
2022/08/23 02:38:10;;;;;;;16.65;10.75;;;19.60;99.90;;;;;;5080029;28;20105;-59
2022/08/23 02:40:37;;;;;;;19.45;11.02;;;19.60;99.90;;;;;;5078988;28;20335;-59
2022/08/23 02:43:05;;;;;;;17.10;10.55;;;19.60;99.90;;;;;;5079028;28;20201;-59
2022/08/23 02:45:31;;;;;;;15.77;10.70;;;19.60;99.90;;;;;;5078822;28;20020;-59
2022/08/23 02:47:58;;;;;;;19.20;11.32;;;19.70;99.90;;;;;;5079650;28;20027;-59
2022/08/23 02:50:30;;;;;;;18.83;11.30;;;19.80;99.90;;;;;;5062912;28;20327;-59
2022/08/23 02:52:57;;;;;;;18.13;11.48;;;19.80;99.90;;;;;;5078888;28;20279;-59
2022/08/23 02:55:24;;;;;;;19.23;11.95;;;19.80;99.90;;;;;;5078758;28;20028;-59
2022/08/23 02:57:50;;;;;;;21.77;15.75;;;19.80;99.90;;;;;;5079386;28;20045;-59
2022/08/23 03:00:17;;;;;;;24.85;15.63;;;19.80;99.90;;;;;;5079801;28;20044;-59
2022/08/23 03:02:44;;;;;;;25.00;16.40;;;19.60;99.90;;;;;;5078584;28;20062;-59
2022/08/23 03:05:12;;;;;;;22.45;15.90;;;19.60;99.90;;;;;;5078471;28;20029;-59
2022/08/23 03:07:38;;;;;;;27.88;17.85;;;19.60;99.90;;;;;;5078604;28;20033;-59
2022/08/23 03:10:06;;;;;;;23.92;17.92;;;19.60;99.90;;;;;;5079556;28;20025;-59
2022/08/23 03:12:34;;;;;;;22.88;16.17;;;19.50;99.90;;;;;;5078382;28;20123;-59
2022/08/23 03:15:00;;;;;;;25.63;16.63;;;19.50;99.90;;;;;;5061698;28;20487;-59
2022/08/23 03:17:26;;;;;;;23.63;15.95;;;19.40;99.90;;;;;;5078231;28;20067;-60
2022/08/23 03:19:52;;;;;;;23.58;16.23;;;19.40;99.90;;;;;;5078292;28;20017;-60
2022/08/23 03:22:18;;;;;;;24.77;17.67;;;19.50;99.90;;;;;;5078350;28;20123;-59
2022/08/23 03:24:45;;;;;;;23.83;17.55;;;19.50;99.90;;;;;;5078236;28;20403;-60
2022/08/23 03:27:11;;;;;;;24.08;16.52;;;19.50;99.90;;;;;;5078134;28;20028;-60
2022/08/23 03:29:38;;;;;;;25.10;17.48;;;19.30;99.90;;;;;;5061558;28;20057;-60
2022/08/23 03:32:06;;;;;;;24.75;17.33;;;19.20;99.90;;;;;;5077832;28;20395;-60
2022/08/23 03:34:35;;;;;;;25.67;17.67;;;19.20;99.90;;;;;;5078103;28;20074;-60
2022/08/23 03:37:01;;;;;;;24.60;17.02;;;19.20;99.90;;;;;;5078732;28;20346;-60
2022/08/23 03:39:27;;;;;;;24.17;16.92;;;19.20;99.90;;;;;;5078165;28;20355;-60
2022/08/23 03:41:55;;;;;;;22.63;16.77;;;19.10;99.90;;;;;;5077765;28;20419;-60
2022/08/23 03:44:21;;;;;;;24.55;16.13;;;19.10;99.90;;;;;;5077677;28;20388;-60
2022/08/23 03:46:47;;;;;;;25.30;17.13;;;19.10;99.90;;;;;;5077736;28;20119;-60
2022/08/23 03:49:14;;;;;;;23.98;16.80;;;19.10;99.90;;;;;;5077715;28;20115;-60
2022/08/23 03:51:44;;;;;;;23.48;16.55;;;19.10;99.90;;;;;;5078271;28;20119;-60
2022/08/23 03:54:10;;;;;;;25.80;16.42;;;19.10;99.90;;;;;;5077551;28;20416;-59
2022/08/23 03:56:38;;;;;;;25.23;16.70;;;19.10;99.90;;;;;;5078276;28;20040;-59
2022/08/23 03:59:09;;;;;;;23.80;16.35;;;19.00;99.90;;;;;;5060877;28;20089;-59
2022/08/23 04:01:35;;;;;;;26.20;16.73;;;19.00;99.90;;;;;;5077341;28;20072;-59
2022/08/23 04:04:02;;;;;;;20.73;15.90;;;19.00;99.90;;;;;;5077571;28;20025;-59
2022/08/23 04:06:30;;;;;;;23.25;16.13;;;18.90;99.90;;;;;;5077332;28;20369;-59
2022/08/23 04:08:56;;;;;;;23.70;16.42;;;18.90;99.90;;;;;;5077325;28;20025;-59
2022/08/23 04:11:24;;;;;;;23.50;16.10;;;18.90;99.90;;;;;;5077225;28;20400;-59
2022/08/23 04:13:58;;;;;;;22.27;16.92;;;18.90;99.90;;;;;;5077492;28;20423;-61
2022/08/23 04:16:24;;;;;;;20.00;15.30;;;18.90;99.90;;;;;;5076981;28;20300;-59
2022/08/23 04:18:50;;;;;;;25.20;16.17;;;19.00;99.90;;;;;;5077152;28;20040;-59
2022/08/23 04:21:21;;;;;;;23.30;16.40;;;19.00;99.90;;;;;;5060687;28;20028;-59
2022/08/23 04:23:47;;;;;;;24.02;16.02;;;19.00;99.90;;;;;;5060385;28;20033;-59
2022/08/23 04:26:13;;;;;;;23.40;16.17;;;19.00;99.90;;;;;;5077758;28;20399;-59
2022/08/23 04:28:40;;;;;;;22.05;15.02;;;19.00;99.90;;;;;;5076714;28;20113;-59
2022/08/23 04:31:06;;;;;;;23.48;16.10;;;19.10;99.90;;;;;;5076984;28;20416;-59
2022/08/23 04:33:34;;;;;;;22.83;16.10;;;19.10;99.90;;;;;;5076884;28;20060;-59
2022/08/23 04:36:01;;;;;;;25.73;16.00;;;19.00;99.90;;;;;;5076657;28;20308;-59
2022/08/23 04:38:27;;;;;;;23.23;15.63;;;19.00;99.90;;;;;;5077484;28;20040;-59
2022/08/23 04:43:44;;;;;;;24.17;15.70;;;19.00;99.90;;;;;;5076317;28;20080;-59
2022/08/23 04:46:16;;;;;;;23.63;16.50;;;19.10;99.90;;;;;;5076324;28;20300;-59
2022/08/23 04:48:45;;;;;;;23.27;15.25;;;19.10;99.90;;;;;;5060111;28;20308;-59
2022/08/23 04:51:12;;;;;;;26.58;16.23;;;19.10;99.90;;;;;;5076452;28;20116;-59
2022/08/23 04:53:38;;;;;;;19.90;15.43;;;19.10;99.90;;;;;;5077002;28;20020;-59
2022/08/23 04:56:27;;;;;;;23.08;14.88;;;19.10;99.90;;;;;;5076987;28;20045;-59
2022/08/23 04:58:53;;;;;;;19.58;14.40;;;19.10;99.90;;;;;;5076218;28;20403;-59
2022/08/23 05:01:20;;;;;;;20.92;15.60;;;19.10;99.90;;;;;;5076379;28;20111;-59
2022/08/23 05:03:46;;;;;;;22.77;14.95;;;19.10;99.90;;;;;;5076306;28;20100;-59
2022/08/23 05:06:12;;;;;;;23.15;15.30;;;19.10;99.90;;;;;;5076035;28;20074;-59
2022/08/23 05:08:39;;;;;;;24.90;14.88;;;19.00;99.90;;;;;;5076569;28;20056;-59
2022/08/23 05:11:08;;;;;;;23.05;14.65;;;19.00;99.90;;;;;;5077192;28;20123;-59
2022/08/23 05:13:37;;;;;;;20.52;14.32;;;19.00;99.90;;;;;;5076187;28;20056;-59
2022/08/23 05:16:05;;;;;;;32.55;14.77;;;19.00;99.90;;;;;;5076371;28;20035;-59
2022/08/23 05:18:37;;;;;;;20.05;13.82;;;18.90;99.90;;;;;;5076131;28;20021;-59
2022/08/23 05:21:04;;;;;;;20.85;13.65;;;18.90;99.90;;;;;;5076227;28;20071;-59
2022/08/23 05:23:30;;;;;;;21.23;14.45;;;18.90;99.90;;;;;;5077443;28;20024;-60
2022/08/23 05:26:01;;;;;;;20.73;14.27;;;19.00;99.90;;;;;;5076116;28;20028;-61
2022/08/23 05:28:33;;;;;;;20.27;14.38;;;19.00;99.90;;;;;;5076230;28;20135;-60
2022/08/23 05:31:03;;;;;;;21.48;15.55;;;19.10;99.90;;;;;;5077248;28;20033;-60
2022/08/23 05:33:36;;;;;;;20.77;14.20;;;19.10;99.90;;;;;;5076885;28;20020;-59
2022/08/23 05:36:04;;;;;;;20.10;14.95;;;19.30;99.90;;;;;;5075986;28;20340;-60
2022/08/23 05:38:30;;;;;;;23.25;17.40;;;19.20;99.90;;;;;;5076800;28;20024;-58
2022/08/23 05:40:57;;;;;;;28.10;17.65;;;19.10;99.90;;;;;;5076032;28;20491;-58
2022/08/23 05:43:24;;;;;;;26.33;17.30;;;18.90;99.90;;;;;;5059248;28;20064;-58
2022/08/23 05:46:03;;;;;;;23.90;17.35;;;18.70;99.90;;;;;;5075971;28;20056;-58
2022/08/23 05:48:30;;;;;;;22.35;15.48;;;18.70;99.90;;;;;;5076020;28;20346;-58
2022/08/23 05:51:24;;;;;;;24.58;15.52;;;18.70;99.90;;;;;;5076188;28;20308;-59
2022/08/23 05:53:51;;;;;;;27.73;15.70;;;18.80;99.90;;;;;;5076074;28;20304;-59
2022/08/23 05:56:25;;;;;;;17.48;13.70;;;19.00;99.90;;;;;;5079538;28;20344;-59
2022/08/23 05:58:55;;;;;;;24.70;14.90;;;19.20;99.90;;;;;;5063238;28;20028;-60
2022/08/23 06:01:21;;;;;;;21.05;14.57;;;19.30;99.90;;;;;;5079675;28;20056;-60
2022/08/23 06:03:50;;;;;;;23.48;13.85;;;19.30;99.90;;;;;;5079948;28;20029;-60
2022/08/23 06:06:17;;;;;;;21.42;13.35;;;19.30;99.90;;;;;;5080482;28;20092;-60
2022/08/23 06:08:47;;;;;;;17.88;13.45;;;19.30;99.90;;;;;;5080332;28;20078;-60
2022/08/23 06:11:18;;;;;;;21.45;13.52;;;19.30;99.90;;;;;;5080205;28;20123;-60
2022/08/23 06:13:46;;;;;;;23.10;13.45;;;19.30;99.90;;;;;;5079502;28;20024;-60
2022/08/23 06:16:16;;;;;;;20.40;12.82;;;19.30;99.90;;;;;;5079459;28;20326;-61
2022/08/23 06:18:44;;;;;;;22.45;12.55;;;19.50;99.90;;;;;;5079243;28;20061;-59
2022/08/23 06:21:31;;;;;;;22.70;12.88;;;19.50;99.90;;;;;;5048945;28;20036;-60
2022/08/23 06:23:57;;;;;;;23.60;12.45;;;19.60;99.90;;;;;;5078930;28;20059;-60
2022/08/23 06:26:25;;;;;;;17.55;11.93;;;19.70;99.90;;;;;;5079800;28;20107;-59
2022/08/23 06:28:54;;;;;;;22.20;11.55;;;19.80;99.90;;;;;;5062233;28;20313;-59
2022/08/23 06:34:24;;;;;;;19.67;10.40;;;19.90;99.90;;;;;;5078839;28;20050;-60
2022/08/23 06:37:25;;;;;;;18.48;10.95;;;20.10;99.90;;;;;;5079130;28;20128;-61
2022/08/23 06:40:27;;;;;;;19.05;9.70;;;20.20;99.90;;;;;;4998836;28;20038;-60
2022/08/23 06:43:13;;;;;;;18.50;10.30;;;20.40;99.90;;;;;;5054827;28;20040;-59
2022/08/23 06:45:52;;;;;;;16.08;8.38;;;20.50;99.90;;;;;;5064194;28;20043;-59
2022/08/23 06:48:19;;;;;;;20.75;10.02;;;20.50;99.90;;;;;;5078811;28;20367;-60
2022/08/23 06:50:45;;;;;;;15.60;8.55;;;20.70;99.90;;;;;;5062150;28;20044;-58
2022/08/23 06:53:29;;;;;;;14.52;8.60;;;20.80;99.90;;;;;;5078850;28;20117;-61
2022/08/23 06:56:06;;;;;;;17.45;8.68;;;20.90;99.90;;;;;;5079786;28;20300;-61
2022/08/23 06:58:40;;;;;;;15.65;8.60;;;21.00;99.90;;;;;;5078793;28;20032;-59
2022/08/23 07:01:44;;;;;;;14.25;8.40;;;21.00;99.90;;;;;;5078783;28;20043;-59
2022/08/23 07:04:26;;;;;;;24.92;9.40;;;21.00;99.90;;;;;;5078796;28;20120;-60
2022/08/23 07:07:11;;;;;;;22.42;8.90;;;21.00;99.90;;;;;;5079373;28;20063;-59
2022/08/23 07:09:38;;;;;;;18.50;8.10;;;21.10;99.90;;;;;;5061966;28;20119;-60
2022/08/23 07:12:05;;;;;;;11.23;6.80;;;21.20;99.90;;;;;;5078563;28;20078;-60
2022/08/23 07:14:31;;;;;;;13.80;7.43;;;21.50;99.90;;;;;;5078478;28;20355;-60
2022/08/23 07:17:00;;;;;;;13.20;7.18;;;21.70;99.90;;;;;;5079758;28;20043;-60
2022/08/23 07:19:32;;;;;;;14.13;6.57;;;21.70;99.90;;;;;;5079417;28;20060;-61
2022/08/23 07:21:59;;;;;;;13.90;7.63;;;21.90;99.90;;;;;;5078419;28;20036;-60
2022/08/23 07:24:26;;;;;;;14.85;7.22;;;21.90;99.90;;;;;;5078371;28;20293;-60
2022/08/23 07:26:53;;;;;;;13.68;6.38;;;22.00;99.90;;;;;;5078320;28;20041;-61
2022/08/23 07:29:21;;;;;;;12.50;6.88;;;22.10;99.90;;;;;;5044966;28;20147;-60
2022/08/23 07:31:51;;;;;;;12.60;5.90;;;22.20;99.90;;;;;;5078189;28;20041;-60
2022/08/23 07:34:17;;;;;;;9.90;5.30;;;22.40;99.90;;;;;;5079550;28;20114;-61
2022/08/23 07:36:45;;;;;;;11.63;5.88;;;22.50;99.90;;;;;;5078031;28;20055;-60
2022/08/23 07:39:13;;;;;;;12.88;4.70;;;22.60;99.90;;;;;;5078865;28;20088;-60
2022/08/23 07:41:39;;;;;;;10.98;4.80;;;22.50;99.90;;;;;;5078817;28;20025;-61
2022/08/23 07:44:09;;;;;;;11.38;4.72;;;22.70;99.90;;;;;;5077834;28;20277;-60
2022/08/23 07:46:39;;;;;;;8.95;4.43;;;22.70;99.90;;;;;;5078127;28;20059;-61
2022/08/23 07:49:06;;;;;;;9.88;4.30;;;22.70;99.90;;;;;;5077916;28;20032;-61
2022/08/23 07:51:37;;;;;;;11.80;4.30;;;22.80;99.90;;;;;;5077773;28;20050;-60
2022/08/23 07:54:08;;;;;;;7.07;2.90;;;23.00;99.90;;;;;;5077643;28;20115;-61
2022/08/23 07:56:39;;;;;;;9.45;3.67;;;23.20;99.90;;;;;;5077912;28;20037;-60
2022/08/23 07:59:16;;;;;;;6.25;3.10;;;23.40;99.90;;;;;;5078422;28;20107;-61
2022/08/23 08:01:54;;;;;;;8.55;3.58;;;23.40;99.90;;;;;;5062451;28;20027;-59
2022/08/23 08:04:22;;;;;;;9.80;3.58;;;23.40;99.90;;;;;;5077529;28;20124;-59
2022/08/23 08:06:50;;;;;;;15.57;4.05;;;23.40;99.90;;;;;;5077408;28;20045;-59
2022/08/23 08:09:19;;;;;;;12.90;3.75;;;23.40;99.90;;;;;;5077424;28;20029;-59
2022/08/23 08:11:47;;;;;;;8.90;3.83;;;23.60;99.90;;;;;;5077216;28;20357;-59
2022/08/23 08:14:16;;;;;;;9.88;3.78;;;23.70;99.90;;;;;;5078063;28;20083;-60
2022/08/23 08:16:51;;;;;;;11.65;3.65;;;23.80;99.90;;;;;;5061700;28;20035;-60
2022/08/23 08:19:32;;;;;;;8.13;3.25;;;23.80;99.90;;;;;;5076961;28;20028;-61
2022/08/23 08:22:30;;;;;;;7.55;3.47;;;23.80;99.90;;;;;;5077736;28;20044;-59
2022/08/23 08:25:16;;;;;;;8.30;3.00;;;23.80;99.90;;;;;;5076986;28;20398;-60
2022/08/23 08:27:42;;;;;;;9.75;3.40;;;23.70;99.90;;;;;;5060309;28;20081;-61
2022/08/23 08:30:10;;;;;;;9.40;3.65;;;23.80;99.90;;;;;;5060101;28;20048;-61
2022/08/23 08:32:38;;;;;;;6.75;2.80;;;23.80;99.90;;;;;;5076837;28;20028;-65
2022/08/23 08:35:05;;;;;;;8.23;3.03;;;23.80;99.90;;;;;;5076800;28;20035;-62
2022/08/23 08:37:31;;;;;;;8.10;2.47;;;23.80;99.90;;;;;;5076713;28;20036;-61
2022/08/23 08:39:58;;;;;;;7.68;2.65;;;23.90;99.90;;;;;;5077489;28;20097;-61
2022/08/23 08:42:39;;;;;;;8.25;2.78;;;24.00;99.90;;;;;;5076681;28;20035;-61
2022/08/23 08:45:18;;;;;;;7.65;2.95;;;24.20;99.90;;;;;;5076720;28;20035;-61
2022/08/23 08:47:56;;;;;;;4.18;1.70;;;24.50;99.90;;;;;;5076721;28;20024;-62
2022/08/23 08:50:28;;;;;;;4.57;1.90;;;24.50;99.90;;;;;;5076659;28;20032;-61
2022/08/23 08:53:12;;;;;;;3.83;1.50;;;24.40;99.90;;;;;;5076571;28;20122;-61
2022/08/23 08:55:58;;;;;;;11.48;4.07;;;24.60;99.90;;;;;;5061942;28;20039;-61
2022/08/23 08:58:49;;;;;;;11.95;4.00;;;25.00;99.90;;;;;;5077103;28;20109;-61
2022/08/23 09:01:20;;;;;;;4.80;1.55;;;25.40;99.90;;;;;;5060317;28;20108;-62
2022/08/23 09:03:47;;;;;;;38.38;31.00;;;25.20;99.90;;;;;;5076323;28;20048;-61
2022/08/23 09:06:26;;;;;;;4.03;1.40;;;25.40;99.90;;;;;;5059711;28;20090;-60
2022/08/23 09:09:10;;;;;;;2.65;1.35;;;26.10;99.90;;;;;;5076355;28;20024;-62
2022/08/23 09:12:16;;;;;;;6.82;1.92;;;26.70;99.90;;;;;;5076376;28;20319;-60
2022/08/23 09:15:14;;;;;;;3.58;1.23;;;26.40;99.90;;;;;;5076266;28;20050;-61
2022/08/23 09:17:54;;;;;;;5.03;1.30;;;26.80;99.90;;;;;;5076118;28;20028;-59
2022/08/23 09:20:22;;;;;;;2.25;1.25;;;27.10;99.90;;;;;;5076248;28;20090;-60
2022/08/23 09:22:58;;;;;;;4.10;1.20;;;27.10;99.90;;;;;;5077085;28;20043;-63
2022/08/23 09:25:29;;;;;;;4.70;1.20;;;26.70;99.90;;;;;;5076274;28;20198;-61
2022/08/23 09:28:02;;;;;;;7.13;1.40;;;26.30;99.90;;;;;;5076119;28;20396;-62
2022/08/23 09:31:04;;;;;;;6.60;1.08;;;26.20;99.90;;;;;;5075353;28;20101;-61
2022/08/23 09:33:40;;;;;;;3.42;1.05;;;26.10;99.90;;;;;;5038928;28;20040;-60
2022/08/23 09:36:21;;;;;;;5.22;1.30;;;26.00;99.90;;;;;;5070917;28;20036;-61
2022/08/23 09:38:57;;;;;;;5.80;1.75;;;25.80;99.90;;;;;;5076067;28;20032;-62
2022/08/23 09:41:44;;;;;;;3.70;1.40;;;25.60;99.90;;;;;;5075962;28;20339;-60
2022/08/23 09:44:28;;;;;;;3.88;1.40;;;25.80;99.90;;;;;;5075897;28;20020;-60
2022/08/23 09:47:10;;;;;;;6.32;1.50;;;26.00;99.90;;;;;;5077007;28;20025;-62
2022/08/23 09:49:46;;;;;;;2.80;1.17;;;26.50;99.90;;;;;;5075998;28;20106;-60
2022/08/23 09:52:49;;;;;;;5.15;1.23;;;26.50;99.90;;;;;;5076090;28;20020;-59
2022/08/23 09:55:35;;;;;;;3.55;1.40;;;26.90;99.90;;;;;;5074099;28;20097;-65
2022/08/23 09:58:05;;;;;;;6.40;1.75;;;26.60;99.90;;;;;;5075878;28;20393;-65
2022/08/23 10:00:35;;;;;;;5.28;1.73;;;26.10;99.90;;;;;;5076540;28;20032;-59
2022/08/23 10:03:27;;;;;;;7.85;2.05;;;26.10;99.90;;;;;;5075812;28;20047;-59
2022/08/23 10:06:16;;;;;;;5.00;1.48;;;26.50;99.90;;;;;;5061655;28;20047;-60
2022/08/23 10:08:55;;;;;;;4.15;1.38;;;26.80;99.90;;;;;;5076643;28;20029;-60
2022/08/23 10:11:27;;;;;;;3.97;1.60;;;26.80;99.90;;;;;;5075681;28;20085;-60
2022/08/23 10:13:53;;;;;;;5.88;1.45;;;26.80;99.90;;;;;;5076525;28;20269;-60
2022/08/23 10:16:49;;;;;;;6.13;1.70;;;26.80;99.90;;;;;;5058803;28;20244;-60
2022/08/23 10:19:21;;;;;;;6.05;1.60;;;26.60;99.90;;;;;;5075639;28;20045;-60
2022/08/23 10:22:07;;;;;;;2.85;1.70;;;26.30;99.90;;;;;;5075679;28;20107;-65
2022/08/23 10:24:50;;;;;;;4.68;1.38;;;26.30;99.90;;;;;;5075573;28;20029;-59
2022/08/23 10:31:01;;;;;;;2.53;0.80;;;26.70;99.90;;;;;;5075644;28;20067;-60
2022/08/23 10:33:58;;;;;;;5.20;0.93;;;27.00;99.90;;;;;;5075363;28;20032;-60
2022/08/23 10:36:50;;;;;;;3.25;0.88;;;26.90;99.90;;;;;;5076197;28;20032;-63
2022/08/23 10:39:24;;;;;;;2.40;0.95;;;26.90;99.90;;;;;;5075700;28;20380;-58
2022/08/23 10:42:31;;;;;;;2.42;0.90;;;26.90;99.90;;;;;;5078592;28;20103;-60
2022/08/23 10:45:35;;;;;;;3.92;1.10;;;26.90;99.90;;;;;;5076419;28;20453;-59
2022/08/23 10:48:42;;;;;;;2.53;1.08;;;27.30;99.90;;;;;;5063092;28;20032;-60
2022/08/23 10:51:11;;;;;;;;;;;27.10;99.90;;;;;;5062939;28;20048;-61
2022/08/23 10:53:59;;;;;;;1.95;0.80;;;26.90;99.90;;;;;;5079567;28;20280;-59
2022/08/23 10:56:27;;;;;;;3.38;0.80;;;27.10;99.90;;;;;;5079475;28;20400;-59
2022/08/23 10:59:06;;;;;;;3.03;1.08;;;28.30;99.90;;;;;;5078690;28;20024;-61
2022/08/23 11:01:58;;;;;;;3.40;1.10;;;28.90;99.90;;;;;;5078839;28;20033;-65
2022/08/23 11:04:47;;;;;;;3.53;0.90;;;28.70;99.90;;;;;;5078802;28;20029;-61
2022/08/23 11:07:40;;;;;;;4.60;1.60;;;30.10;99.90;;;;;;5063740;28;20072;-61
2022/08/23 11:10:33;;;;;;;2.47;1.20;;;29.40;99.90;;;;;;5078790;28;20024;-59
2022/08/23 11:13:02;;;;;;;2.03;0.80;;;29.60;99.90;;;;;;5078582;28;20048;-62
2022/08/23 11:15:42;;;;;;;2.08;0.60;;;30.10;99.90;;;;;;5078366;28;20030;-65
2022/08/23 11:18:30;;;;;;;3.20;0.80;;;29.50;99.90;;;;;;5078442;28;20040;-60
2022/08/23 11:21:17;;;;;;;1.10;0.65;;;28.60;99.90;;;;;;5079122;28;20029;-60
2022/08/23 11:23:53;;;;;;;1.20;0.60;;;28.80;99.90;;;;;;5078466;28;20032;-60
2022/08/23 11:26:22;;;;;;;2.53;0.60;;;29.50;99.90;;;;;;5078355;28;20039;-60
2022/08/23 11:28:50;;;;;;;3.13;0.70;;;29.40;99.90;;;;;;5078172;28;20040;-61
2022/08/23 11:31:30;;;;;;;1.00;0.70;;;29.30;99.90;;;;;;5078242;28;20028;-61
2022/08/23 11:34:07;;;;;;;6.47;1.55;;;29.00;99.90;;;;;;5078201;28;20104;-59
2022/08/23 11:36:35;;;;;;;4.13;1.35;;;29.70;99.90;;;;;;5077926;28;20182;-58
2022/08/23 11:39:04;;;;;;;4.43;1.27;;;30.40;99.90;;;;;;5078909;28;20095;-59
2022/08/23 11:41:34;;;;;;;2.53;0.95;;;30.80;99.90;;;;;;5078236;28;20419;-62
2022/08/23 11:44:06;;;;;;;2.70;0.90;;;30.10;99.90;;;;;;5078059;28;20078;-60
2022/08/23 11:46:36;;;;;;;1.42;0.82;;;29.50;99.90;;;;;;5077938;28;20389;-59
2022/08/23 11:49:28;;;;;;;2.97;0.93;;;29.60;99.90;;;;;;5077962;28;20360;-59
2022/08/23 11:52:20;;;;;;;3.03;0.90;;;30.20;99.90;;;;;;5078479;28;20115;-59
2022/08/23 11:54:55;;;;;;;1.88;0.88;;;30.70;99.90;;;;;;5078451;28;20028;-60
2022/08/23 11:57:30;;;;;;;5.75;1.08;;;30.70;99.90;;;;;;5078320;28;20039;-61
2022/08/23 12:00:07;;;;;;;3.20;1.10;;;30.40;99.90;;;;;;5078357;28;20047;-60
2022/08/23 12:02:37;;;;;;;3.78;0.80;;;30.20;99.90;;;;;;5078356;28;20037;-57
2022/08/23 12:05:20;;;;;;;1.80;0.73;;;30.70;99.90;;;;;;5077444;28;20035;-60
2022/08/23 12:08:12;;;;;;;2.55;0.80;;;31.90;99.90;;;;;;5078148;28;20121;-61
2022/08/23 12:10:41;;;;;;;3.40;0.70;;;31.90;99.90;;;;;;5077964;28;20033;-60
2022/08/23 12:13:22;;;;;;;3.45;0.70;;;32.30;99.90;;;;;;5078046;28;20332;-61
2022/08/23 12:16:18;;;;;;;0.80;0.60;;;32.20;99.90;;;;;;5078120;28;20035;-60
2022/08/23 12:18:56;;;;;;;1.35;0.60;;;31.90;99.90;;;;;;5077987;28;20335;-60
2022/08/23 12:21:43;;;;;;;2.20;0.50;;;30.50;99.90;;;;;;5078577;28;20032;-60
2022/08/23 12:24:22;;;;;;;1.85;0.60;;;30.50;99.90;;;;;;5077056;28;20033;-60
2022/08/23 12:27:07;;;;;;;1.35;0.50;;;31.00;99.90;;;;;;5078306;28;20153;-60
2022/08/23 12:29:57;;;;;;;3.65;0.70;;;31.60;99.90;;;;;;5077617;28;20044;-60
2022/08/23 12:32:37;;;;;;;3.67;0.65;;;31.70;99.90;;;;;;5077750;28;20065;-60
2022/08/23 12:35:22;;;;;;;0.85;0.70;;;31.60;99.90;;;;;;5077637;28;20032;-60
2022/08/23 12:38:11;;;;;;;2.42;0.63;;;31.50;99.90;;;;;;5078078;28;20028;-61
2022/08/23 12:40:43;;;;;;;4.00;0.68;;;31.70;99.90;;;;;;5077627;28;20078;-59
2022/08/23 12:43:14;;;;;;;2.20;0.60;;;31.70;99.90;;;;;;5077550;28;20093;-60
2022/08/23 12:45:44;;;;;;;2.45;0.80;;;31.10;99.90;;;;;;5077484;28;20027;-59
2022/08/23 12:48:13;;;;;;;1.95;0.60;;;30.80;99.90;;;;;;5077312;28;20045;-59
2022/08/23 12:50:44;;;;;;;4.00;1.00;;;30.60;99.90;;;;;;5077620;28;20164;-60
2022/08/23 12:53:16;;;;;;;1.30;0.60;;;30.50;99.90;;;;;;5077626;28;20047;-60
2022/08/23 12:55:50;;;;;;;1.47;0.60;;;30.70;99.90;;;;;;5077294;28;20032;-58
2022/08/23 12:58:26;;;;;;;1.13;0.68;;;30.50;99.90;;;;;;5076473;28;20290;-60
2022/08/23 13:00:56;;;;;;;3.15;0.60;;;29.90;99.90;;;;;;5077613;28;20028;-58
2022/08/23 13:03:32;;;;;;;1.52;0.57;;;29.70;99.90;;;;;;5077040;28;20032;-58
2022/08/23 13:06:03;;;;;;;2.40;0.65;;;31.60;99.90;;;;;;5077084;28;20043;-60
2022/08/23 13:08:44;;;;;;;0.80;0.50;;;33.60;99.90;;;;;;5077066;28;20035;-57
2022/08/23 13:11:11;;;;;;;1.20;0.65;;;34.90;99.90;;;;;;5082732;23;20061;-58
2022/08/23 13:13:40;;;;;;;0.80;0.40;;;34.10;99.90;;;;;;5076916;28;20093;-61
2022/08/23 13:16:30;;;;;;;0.98;0.70;;;34.60;99.90;;;;;;5076090;28;20021;-59
2022/08/23 13:19:22;;;;;;;2.58;0.60;;;36.80;99.90;;;;;;5076046;28;20032;-59
2022/08/23 13:22:07;;;;;;;;;;;37.30;97.50;;;;;;5077235;28;20036;-59
2022/08/23 13:24:38;;;;;;;1.95;0.60;;;37.40;96.00;;;;;;5076817;28;19908;-59
2022/08/23 13:27:16;;;;;;;3.03;0.73;;;38.50;93.20;;;;;;5076810;28;20353;-60